Time;durP1;ratioP1;P1;durP2;ratioP2;P2;SDS_P1;SDS_P2;PMS_P1;PMS_P2;Temp;Humidity;BMP_temperature;BMP_pressure;BME280_temperature;BME280_humidity;BME280_pressure;Samples;Min_cycle;Max_cycle;Signal;HPM_P1;HPM_P2
2023/03/01 00:01:32;;;;;;;24.27;15.20;;;-4.70;99.90;-4.20;94519.00;;;;7405864;19;20141;-76
2023/03/01 00:03:59;;;;;;;25.60;14.53;;;-4.60;99.90;-4.30;94492.00;;;;7400386;19;20149;-77
2023/03/01 00:06:27;;;;;;;26.27;15.37;;;-4.60;99.90;-4.30;94497.00;;;;7402880;19;20147;-77
2023/03/01 00:09:02;;;;;;;23.37;14.77;;;-4.60;99.90;-4.50;94504.00;;;;7404216;19;20157;-78
2023/03/01 00:11:32;;;;;;;23.20;14.63;;;-4.80;99.90;-4.60;94477.00;;;;7406263;19;20152;-76
2023/03/01 00:14:06;;;;;;;31.03;14.87;;;-4.80;99.90;-4.30;94532.00;;;;7404965;19;20148;-76
2023/03/01 00:16:42;;;;;;;24.27;15.40;;;-4.80;1.00;-4.20;94543.00;;;;7405195;19;20122;-75
2023/03/01 00:19:19;;;;;;;23.07;15.13;;;-4.70;1.00;-4.20;94481.00;;;;7404812;19;20126;-77
2023/03/01 00:21:52;;;;;;;23.93;13.70;;;-4.70;1.00;-4.30;94423.00;;;;7404873;19;20526;-77
2023/03/01 00:24:25;;;;;;;30.13;15.70;;;-4.70;1.00;-4.30;94498.00;;;;7405336;19;20190;-75
2023/03/01 00:26:56;;;;;;;22.50;14.13;;;-4.70;1.00;-4.20;94532.00;;;;7402621;19;20167;-75
2023/03/01 00:29:29;;;;;;;24.57;15.53;;;-4.60;1.00;-4.30;94481.00;;;;7405321;19;20477;-76
2023/03/01 00:31:56;;;;;;;26.13;15.67;;;-4.60;1.00;-4.50;94478.00;;;;7405984;19;20130;-75
2023/03/01 00:34:29;;;;;;;25.77;15.20;;;-4.70;1.00;-4.50;94467.00;;;;7405231;19;20164;-75
2023/03/01 00:37:04;;;;;;;24.17;14.60;;;-4.80;1.00;-4.70;94480.00;;;;7404094;19;20510;-77
2023/03/01 00:39:38;;;;;;;23.10;14.80;;;-4.90;1.00;-4.80;94517.00;;;;7406310;19;20608;-76
2023/03/01 00:42:08;;;;;;;26.33;16.27;;;-5.10;1.00;-4.80;94460.00;;;;7405477;19;20175;-77
2023/03/01 00:44:41;;;;;;;24.97;14.80;;;-5.10;1.00;-4.70;94426.00;;;;7401398;19;21098;-75
2023/03/01 00:47:28;;;;;;;23.87;15.27;;;-5.10;1.00;-4.70;94464.00;;;;7402118;19;20172;-76
2023/03/01 00:50:02;;;;;;;25.37;14.97;;;-5.10;1.00;-4.80;94497.00;;;;7402799;19;20542;-76
2023/03/01 00:52:36;;;;;;;27.53;15.03;;;-5.20;1.00;-4.80;94457.00;;;;7399747;19;20539;-76
2023/03/01 00:55:05;;;;;;;28.87;15.27;;;-5.20;99.90;-4.70;94499.00;;;;7400933;19;20197;-77
2023/03/01 00:57:38;;;;;;;29.90;15.30;;;-5.20;99.90;-4.70;94511.00;;;;7405100;19;20144;-76
2023/03/01 01:00:12;;;;;;;27.17;16.47;;;-5.20;99.90;-4.80;94515.00;;;;7402554;19;20662;-75
2023/03/01 01:02:46;;;;;;;25.77;14.93;;;-5.20;99.90;-5.00;94495.00;;;;7402617;19;20153;-77
2023/03/01 01:05:14;;;;;;;27.90;15.80;;;-5.30;99.90;-5.10;94474.00;;;;7403452;19;20149;-76
2023/03/01 01:07:48;;;;;;;27.50;16.00;;;-5.40;99.90;-5.20;94477.00;;;;7401135;19;20172;-77
2023/03/01 01:10:16;;;;;;;27.73;16.13;;;-5.50;99.90;-4.80;94508.00;;;;7403984;19;20588;-77
2023/03/01 01:12:51;;;;;;;28.67;14.97;;;-5.40;1.00;-4.90;94502.00;;;;7403852;19;20173;-76
2023/03/01 01:15:25;;;;;;;28.53;16.57;;;-5.30;1.00;-4.70;94452.00;;;;7401717;19;20128;-76
2023/03/01 01:17:52;;;;;;;27.50;16.80;;;-5.30;1.00;-4.70;94475.00;;;;7404120;19;20121;-76
2023/03/01 01:20:25;;;;;;;24.43;15.27;;;-5.20;1.00;-4.90;94466.00;;;;7402719;19;20118;-75
2023/03/01 01:22:52;;;;;;;26.00;15.90;;;-5.20;1.00;-4.90;94500.00;;;;7402593;19;20596;-77
2023/03/01 01:25:19;;;;;;;30.13;15.90;;;-5.30;1.00;-5.10;94442.00;;;;7402621;19;20588;-77
2023/03/01 01:27:53;;;;;;;25.63;15.53;;;-5.40;99.90;-5.20;94455.00;;;;7399850;19;20137;-75
2023/03/01 01:30:26;;;;;;;34.30;16.67;;;-5.50;99.90;-5.20;94477.00;;;;7402808;19;20145;-75
2023/03/01 01:32:59;;;;;;;27.07;17.07;;;-5.60;1.00;-5.30;94433.00;;;;7403154;19;20133;-76
2023/03/01 01:35:32;;;;;;;27.43;16.53;;;-5.60;1.00;-5.10;94462.00;;;;7401882;19;20631;-77
2023/03/01 01:38:05;;;;;;;30.73;17.20;;;-5.50;1.00;-5.00;94421.00;;;;7403055;19;20501;-76
2023/03/01 01:40:32;;;;;;;29.70;17.83;;;-5.50;17.00;-5.10;94409.00;;;;7401801;19;20149;-77
2023/03/01 01:43:28;;;;;;;32.47;17.67;;;-5.50;6.20;-4.90;94482.00;;;;7401217;19;20515;-75
2023/03/01 01:46:04;;;;;;;25.87;16.97;;;-5.40;82.90;-5.00;94473.00;;;;7400340;19;20117;-76
2023/03/01 01:48:52;;;;;;;28.27;17.73;;;-5.40;62.70;-5.30;94476.00;;;;7399590;19;20191;-77
2023/03/01 01:51:38;;;;;;;29.97;17.90;;;-5.50;12.40;-5.00;94458.00;;;;7400683;19;20172;-76
2023/03/01 01:54:27;;;;;;;29.60;17.40;;;-5.40;95.90;-5.10;94389.00;;;;7402308;19;20933;-75
2023/03/01 01:57:08;;;;;;;31.57;16.33;;;-5.40;99.90;-5.00;94426.00;;;;7401837;19;20162;-77
2023/03/01 01:59:50;;;;;;;29.60;17.27;;;-5.40;99.90;-4.90;94408.00;;;;7401754;19;20164;-76
2023/03/01 02:02:25;;;;;;;31.77;18.90;;;-5.40;99.90;-5.00;94409.00;;;;7400536;19;20232;-75
2023/03/01 02:05:46;;;;;;;28.67;18.23;;;-5.40;99.90;-5.10;94466.00;;;;7403134;19;20568;-77
2023/03/01 02:08:26;;;;;;;29.67;17.63;;;-5.40;99.90;-5.10;94459.00;;;;7397808;19;20137;-76
2023/03/01 02:11:04;;;;;;;27.73;16.93;;;-5.40;99.90;-5.10;94387.00;;;;7400719;19;20141;-76
2023/03/01 02:13:37;;;;;;;30.37;16.93;;;-5.40;99.90;-5.10;94453.00;;;;7401903;19;20220;-76
2023/03/01 02:16:09;;;;;;;32.63;17.80;;;-5.40;99.90;-5.40;94457.00;;;;7400227;19;20137;-76
2023/03/01 02:18:44;;;;;;;32.13;18.53;;;-5.50;99.90;-5.20;94391.00;;;;7401214;19;20608;-76
2023/03/01 02:21:52;;;;;;;30.30;18.50;;;-5.50;99.90;-5.40;94457.00;;;;7400774;19;20496;-76
2023/03/01 02:24:57;;;;;;;33.07;18.33;;;-5.60;99.90;-5.30;94352.00;;;;7401521;19;20152;-75
2023/03/01 02:28:17;;;;;;;30.67;16.93;;;-5.60;99.90;-5.20;94447.00;;;;7399886;19;20603;-77
2023/03/01 02:33:48;;;;;;;33.17;18.67;;;-5.50;99.90;-5.20;94400.00;;;;7399697;19;20161;-75
2023/03/01 02:36:30;;;;;;;31.63;18.70;;;-5.50;99.90;-5.20;94423.00;;;;7402017;19;20148;-76
2023/03/01 02:39:14;;;;;;;34.57;18.23;;;-5.50;99.90;-5.20;94364.00;;;;7400310;19;20168;-76
2023/03/01 02:41:52;;;;;;;32.90;19.13;;;-5.50;99.90;-5.30;94424.00;;;;7399196;19;20156;-76
2023/03/01 02:44:26;;;;;;;36.90;19.63;;;-5.50;99.90;-5.00;94341.00;;;;7400055;19;20508;-76
2023/03/01 02:47:03;;;;;;;35.83;18.90;;;-5.50;99.90;-5.20;94425.00;;;;7398916;19;20148;-76
2023/03/01 02:49:44;;;;;;;33.77;18.70;;;-5.40;99.90;-5.10;94387.00;;;;7399354;19;20539;-76
2023/03/01 02:52:44;;;;;;;32.83;19.83;;;-5.40;99.90;-5.30;94388.00;;;;7398979;19;20129;-76
2023/03/01 02:55:18;;;;;;;29.90;19.30;;;-5.50;99.90;-5.30;94399.00;;;;7399893;19;20169;-76
2023/03/01 02:57:51;;;;;;;32.40;18.53;;;-5.60;99.90;-5.40;94358.00;;;;7398809;19;20194;-76
2023/03/01 03:00:46;;;;;;;34.10;20.03;;;-5.60;99.90;-5.40;94301.00;;;;7399042;19;20615;-78
2023/03/01 03:03:21;;;;;;;31.93;18.57;;;-5.70;99.90;-5.30;94420.00;;;;7399349;19;20149;-75
2023/03/01 03:05:55;;;;;;;34.47;19.33;;;-5.70;99.90;-5.40;94407.00;;;;7398989;19;20149;-76
2023/03/01 03:08:28;;;;;;;38.23;19.90;;;-5.70;99.90;-5.50;94378.00;;;;7397332;19;20157;-75
2023/03/01 03:10:55;;;;;;;32.33;18.30;;;-5.80;99.90;-5.70;94337.00;;;;7399577;19;20594;-76
2023/03/01 03:13:29;;;;;;;33.00;19.07;;;-5.90;99.90;-5.60;94330.00;;;;7399098;19;20192;-75
2023/03/01 03:15:57;;;;;;;37.27;19.97;;;-5.90;99.90;-5.40;94396.00;;;;7399197;19;20124;-76
2023/03/01 03:18:27;;;;;;;33.07;18.53;;;-5.90;1.00;-5.30;94301.00;;;;7399707;19;20128;-75
2023/03/01 03:21:01;;;;;;;35.63;20.47;;;-5.90;1.00;-5.20;94357.00;;;;7398619;19;20591;-76
2023/03/01 03:23:29;;;;;;;35.40;20.10;;;-5.80;1.00;-5.10;94373.00;;;;7399580;19;20125;-76
2023/03/01 03:26:04;;;;;;;36.10;21.97;;;-5.70;99.90;-5.00;94386.00;;;;7398854;19;20203;-76
2023/03/01 03:28:33;;;;;;;37.80;20.97;;;-5.60;99.90;-4.90;94348.00;;;;7404317;19;20134;-76
2023/03/01 03:31:07;;;;;;;37.20;21.67;;;-5.40;99.90;-4.70;94358.00;;;;7406043;19;20133;-76
2023/03/01 03:33:41;;;;;;;42.43;22.27;;;-5.30;99.90;-4.60;94325.00;;;;7407538;19;20140;-76
2023/03/01 03:36:22;;;;;;;36.27;21.23;;;-5.20;99.90;-4.40;94404.00;;;;7406204;19;20603;-76
2023/03/01 03:38:56;;;;;;;39.47;22.00;;;-5.00;99.90;-4.40;94344.00;;;;7407977;19;20125;-76
2023/03/01 03:41:30;;;;;;;39.13;21.50;;;-4.90;61.80;-4.30;94341.00;;;;7407207;19;20121;-76
2023/03/01 03:44:03;;;;;;;38.73;22.57;;;-4.80;1.00;-4.20;94352.00;;;;7406279;19;20549;-76
2023/03/01 03:46:37;;;;;;;37.87;22.30;;;-4.80;1.00;-4.10;94378.00;;;;7405454;19;20598;-77
2023/03/01 03:49:17;;;;;;;38.60;22.33;;;-4.70;1.00;-4.00;94326.00;;;;7404389;19;20144;-78
2023/03/01 03:51:46;;;;;;;42.87;22.17;;;-4.60;1.00;-4.20;94334.00;;;;7404659;19;20153;-78
2023/03/01 03:54:19;;;;;;;34.87;20.60;;;-4.60;99.90;-4.00;94355.00;;;;7403475;19;20204;-76
2023/03/01 03:56:46;;;;;;;41.00;22.10;;;-4.50;99.90;-3.90;94342.00;;;;7401931;19;20123;-75
2023/03/01 03:59:20;;;;;;;36.27;20.93;;;-4.50;99.90;-3.90;94312.00;;;;7403374;19;20150;-77
2023/03/01 04:01:54;;;;;;;39.27;22.03;;;-4.40;99.90;-3.80;94346.00;;;;7403072;19;20230;-75
2023/03/01 04:04:27;;;;;;;34.50;20.90;;;-4.30;99.90;-3.80;94340.00;;;;7404355;19;20152;-77
2023/03/01 04:06:54;;;;;;;35.87;21.27;;;-4.30;99.90;-3.80;94328.00;;;;7404534;19;20174;-77
2023/03/01 04:09:21;;;;;;;35.77;21.00;;;-4.30;66.20;-3.70;94333.00;;;;7403673;19;20144;-76
2023/03/01 04:11:54;;;;;;;34.40;20.30;;;-4.20;37.30;-3.80;94345.00;;;;7404812;19;20130;-76
2023/03/01 04:14:21;;;;;;;32.70;19.13;;;-4.20;30.00;-3.80;94338.00;;;;7402787;19;20218;-77
2023/03/01 04:16:55;;;;;;;34.40;19.57;;;-4.20;33.90;-3.60;94343.00;;;;7404220;19;20753;-77
2023/03/01 04:19:22;;;;;;;32.70;19.63;;;-4.20;1.00;-3.70;94354.00;;;;7403429;19;20147;-75
2023/03/01 04:21:56;;;;;;;34.30;19.57;;;-4.10;1.00;-3.50;94324.00;;;;7406029;19;20125;-75
2023/03/01 04:24:23;;;;;;;34.73;19.87;;;-4.10;1.00;-3.60;94356.00;;;;7403774;19;20205;-76
2023/03/01 04:26:57;;;;;;;34.53;19.67;;;-4.10;1.00;-3.50;94334.00;;;;7404734;19;20126;-76
2023/03/01 04:29:31;;;;;;;34.37;19.83;;;-4.10;1.00;-3.60;94321.00;;;;7403005;19;20185;-76
2023/03/01 04:31:58;;;;;;;32.63;18.70;;;-4.10;1.00;-3.70;94357.00;;;;7404652;19;20636;-76
2023/03/01 04:34:32;;;;;;;29.60;17.70;;;-4.10;1.00;-3.70;94324.00;;;;7404240;19;20115;-77
2023/03/01 04:36:59;;;;;;;32.73;19.27;;;-4.10;1.00;-3.70;94317.00;;;;7402794;19;20155;-77
2023/03/01 04:39:32;;;;;;;31.67;18.47;;;-4.00;1.40;-3.60;94299.00;;;;7402987;19;20474;-76
2023/03/01 04:42:06;;;;;;;32.23;18.80;;;-4.00;99.90;-3.60;94340.00;;;;7403067;19;20159;-75
2023/03/01 04:44:40;;;;;;;33.27;18.57;;;-4.00;99.90;-3.60;94322.00;;;;7402931;19;20152;-75
2023/03/01 04:47:13;;;;;;;35.07;19.10;;;-3.90;99.90;-3.60;94357.00;;;;7401774;19;20141;-76
2023/03/01 04:49:52;;;;;;;30.57;17.93;;;-3.90;99.90;-3.60;94319.00;;;;7397386;19;20469;-76
2023/03/01 04:52:19;;;;;;;30.50;18.77;;;-3.90;99.90;-3.50;94339.00;;;;7398726;19;20222;-76
2023/03/01 04:54:53;;;;;;;29.53;18.37;;;-3.90;99.90;-3.40;94320.00;;;;7399103;19;20144;-76
2023/03/01 04:57:20;;;;;;;29.03;18.97;;;-3.90;99.90;-3.40;94355.00;;;;7396821;19;20140;-76
2023/03/01 04:59:53;;;;;;;31.43;19.30;;;-3.90;99.90;-3.50;94298.00;;;;7398045;19;20173;-76
2023/03/01 05:02:20;;;;;;;34.80;19.77;;;-3.80;99.90;-3.30;94302.00;;;;7398798;19;20606;-77
2023/03/01 05:04:57;;;;;;;31.67;18.70;;;-3.80;99.90;-3.40;94350.00;;;;7401240;19;20132;-77
2023/03/01 05:07:30;;;;;;;31.37;18.23;;;-3.80;99.90;-3.40;94337.00;;;;7397835;19;20161;-78
2023/03/01 05:10:03;;;;;;;27.67;18.57;;;-3.70;99.90;-3.30;94322.00;;;;7398270;19;20491;-77
2023/03/01 05:12:39;;;;;;;33.53;18.47;;;-3.70;74.20;-3.40;94343.00;;;;7397498;19;20148;-77
2023/03/01 05:15:12;;;;;;;32.07;18.93;;;-3.70;57.00;-3.40;94270.00;;;;7398543;19;20729;-77
2023/03/01 05:17:46;;;;;;;29.53;17.50;;;-3.70;36.40;-3.40;94323.00;;;;7397251;19;20140;-76
2023/03/01 05:20:22;;;;;;;30.73;18.13;;;-3.70;43.80;-3.40;94344.00;;;;7398417;19;20474;-77
2023/03/01 05:22:59;;;;;;;27.43;18.13;;;-3.70;43.00;-3.30;94349.00;;;;7397627;19;20144;-77
2023/03/01 05:25:34;;;;;;;30.23;18.07;;;-3.70;5.60;-3.30;94350.00;;;;7396752;19;20480;-76
2023/03/01 05:28:12;;;;;;;29.50;18.60;;;-3.70;1.00;-3.30;94336.00;;;;7397857;19;20147;-77
2023/03/01 05:30:40;;;;;;;30.87;18.90;;;-3.70;1.00;-3.20;94343.00;;;;7397815;19;20139;-77
2023/03/01 05:33:14;;;;;;;27.70;17.13;;;-3.70;1.00;-3.30;94341.00;;;;7397703;19;20144;-77
2023/03/01 05:35:43;;;;;;;26.63;17.90;;;-3.70;1.00;-3.20;94346.00;;;;7398040;19;20630;-77
2023/03/01 05:38:18;;;;;;;28.60;17.67;;;-3.70;1.00;-3.20;94299.00;;;;7395869;19;20164;-75
2023/03/01 05:40:51;;;;;;;31.33;18.70;;;-3.70;1.00;-3.30;94315.00;;;;7397017;19;20468;-77
2023/03/01 05:43:26;;;;;;;30.13;18.57;;;-3.60;1.00;-3.20;94320.00;;;;7396905;19;20156;-75
2023/03/01 05:45:52;;;;;;;28.87;17.90;;;-3.60;1.00;-3.00;94308.00;;;;7397483;19;20147;-77
2023/03/01 05:48:26;;;;;;;28.70;19.30;;;-3.60;1.00;-3.10;94272.00;;;;7394292;19;20226;-75
2023/03/01 05:51:00;;;;;;;30.40;17.67;;;-3.60;1.00;-3.00;94294.00;;;;7398504;19;20199;-75
2023/03/01 05:53:34;;;;;;;26.17;17.33;;;-3.50;1.00;-2.90;94295.00;;;;7396904;19;20596;-75
2023/03/01 05:56:08;;;;;;;29.53;17.73;;;-3.50;1.00;-2.90;94322.00;;;;7396595;19;20138;-75
2023/03/01 05:58:38;;;;;;;33.90;18.83;;;-3.40;1.00;-2.90;94323.00;;;;7393871;19;20153;-74
2023/03/01 06:01:13;;;;;;;30.90;19.30;;;-3.30;1.00;-2.80;94295.00;;;;7396173;19;20531;-76
2023/03/01 06:03:46;;;;;;;32.43;18.20;;;-3.30;1.00;-2.80;94336.00;;;;7394339;19;20664;-77
2023/03/01 06:06:20;;;;;;;32.27;18.57;;;-3.20;1.00;-2.70;94348.00;;;;7397011;19;20163;-76
2023/03/01 06:08:47;;;;;;;31.13;18.63;;;-3.20;1.00;-2.80;94313.00;;;;7395440;19;20164;-76
2023/03/01 06:11:21;;;;;;;28.57;18.13;;;-3.20;99.90;-2.70;94348.00;;;;7398275;19;20134;-75
2023/03/01 06:13:55;;;;;;;32.70;18.77;;;-3.10;99.90;-2.70;94324.00;;;;7397874;19;20150;-75
2023/03/01 06:16:29;;;;;;;31.23;17.57;;;-3.10;99.90;-2.70;94338.00;;;;7398066;19;20150;-76
2023/03/01 06:18:56;;;;;;;25.40;15.97;;;-3.10;99.90;-2.70;94308.00;;;;7394245;19;20577;-77
2023/03/01 06:21:30;;;;;;;33.83;17.90;;;-3.10;99.90;-2.60;94323.00;;;;7394826;19;20136;-77
2023/03/01 06:24:05;;;;;;;26.80;17.77;;;-3.10;99.90;-2.60;94309.00;;;;7395987;19;20152;-76
2023/03/01 06:26:39;;;;;;;26.43;16.53;;;-3.10;99.90;-2.60;94349.00;;;;7394572;19;20643;-76
2023/03/01 06:29:08;;;;;;;26.30;16.97;;;-3.00;99.90;-2.50;94275.00;;;;7391136;19;20154;-78
2023/03/01 06:31:41;;;;;;;23.37;15.57;;;-3.00;99.90;-2.50;94297.00;;;;7390875;19;20617;-75
2023/03/01 06:34:08;;;;;;;30.23;17.07;;;-2.90;99.90;-2.50;94330.00;;;;7400292;19;20213;-75
2023/03/01 06:36:41;;;;;;;26.93;16.40;;;-2.90;99.90;-2.40;94286.00;;;;7399643;19;20149;-74
2023/03/01 06:39:08;;;;;;;29.03;18.17;;;-2.80;99.90;-2.30;94309.00;;;;7398232;19;20209;-74
2023/03/01 06:41:42;;;;;;;30.03;16.50;;;-2.80;58.10;-2.40;94291.00;;;;7393419;19;20156;-75
2023/03/01 06:44:15;;;;;;;28.77;17.30;;;-2.80;19.20;-2.40;94280.00;;;;7394744;19;20159;-75
2023/03/01 06:46:49;;;;;;;24.73;15.93;;;-2.80;1.00;-2.50;94307.00;;;;7396386;19;20610;-75
2023/03/01 06:49:23;;;;;;;31.50;18.63;;;-2.80;2.50;-2.40;94325.00;;;;7397749;19;20727;-75
2023/03/01 06:51:57;;;;;;;30.10;17.70;;;-2.80;1.00;-2.50;94301.00;;;;7387093;19;20654;-74
2023/03/01 06:54:24;;;;;;;26.47;17.13;;;-2.80;1.00;-2.50;94288.00;;;;7398043;19;20137;-74
2023/03/01 06:56:57;;;;;;;27.63;17.87;;;-2.70;22.00;-2.40;94342.00;;;;7393748;19;20132;-75
2023/03/01 06:59:24;;;;;;;26.53;17.30;;;-2.70;8.90;-2.30;94323.00;;;;7397335;19;20215;-75
2023/03/01 07:01:57;;;;;;;28.10;17.43;;;-2.70;3.80;-2.30;94333.00;;;;7390039;19;20494;-75
2023/03/01 07:04:30;;;;;;;25.20;16.10;;;-2.60;1.00;-2.10;94294.00;;;;7400341;19;20121;-74
2023/03/01 07:06:57;;;;;;;27.23;16.43;;;-2.60;1.00;-2.10;94290.00;;;;7397842;19;20144;-75
2023/03/01 07:09:33;;;;;;;28.23;16.57;;;-2.60;1.00;-2.10;94310.00;;;;7396158;19;20164;-75
2023/03/01 07:12:06;;;;;;;23.63;16.33;;;-2.60;1.00;-2.10;94278.00;;;;7397595;19;20579;-76
2023/03/01 07:14:33;;;;;;;29.60;17.83;;;-2.50;1.00;-2.00;94309.00;;;;7393942;19;20152;-74
2023/03/01 07:17:00;;;;;;;27.27;17.20;;;-2.50;1.00;-1.90;94277.00;;;;7399970;19;20603;-76
2023/03/01 07:19:34;;;;;;;30.93;16.40;;;-2.40;1.00;-1.80;94303.00;;;;7396530;19;20156;-75
2023/03/01 07:22:09;;;;;;;26.83;16.73;;;-2.40;1.00;-1.70;94260.00;;;;7398451;19;20612;-76
2023/03/01 07:24:43;;;;;;;25.37;16.33;;;-2.30;1.00;-1.50;94259.00;;;;7395295;19;20158;-74
2023/03/01 07:27:10;;;;;;;27.00;17.17;;;-2.20;1.00;-1.40;94266.00;;;;7395456;19;20129;-74
2023/03/01 07:29:44;;;;;;;26.97;15.90;;;-2.10;1.00;-1.30;94238.00;;;;7392410;19;20163;-75
2023/03/01 07:32:11;;;;;;;24.83;15.80;;;-1.90;1.00;-1.10;94254.00;;;;7395024;19;20157;-75
2023/03/01 07:34:45;;;;;;;26.83;16.10;;;-1.80;1.00;-0.90;94300.00;;;;7397381;19;20183;-74
2023/03/01 07:37:12;;;;;;;24.27;15.63;;;-1.80;1.00;-0.70;94296.00;;;;7393753;19;20132;-75
2023/03/01 07:39:51;;;;;;;25.93;16.67;;;-1.60;1.00;-0.80;94260.00;;;;7393661;19;20600;-74
2023/03/01 07:42:18;;;;;;;22.40;15.00;;;-1.60;99.90;-0.90;94269.00;;;;7395099;19;20168;-75
2023/03/01 07:44:52;;;;;;;25.63;15.57;;;-1.50;99.90;-0.30;94256.00;;;;7396017;19;20129;-75
2023/03/01 07:47:19;;;;;;;23.83;15.83;;;-1.40;99.90;0.20;94277.00;;;;7392960;19;20528;-75
2023/03/01 07:50:00;;;;;;;25.80;16.40;;;-1.20;99.90;0.40;94236.00;;;;7395019;19;20180;-75
2023/03/01 07:52:28;;;;;;;25.90;17.63;;;-1.10;99.90;0.60;94288.00;;;;7398641;19;20587;-75
2023/03/01 07:55:01;;;;;;;24.40;16.00;;;-1.00;99.90;0.30;94230.00;;;;7396480;19;20129;-75
2023/03/01 07:57:34;;;;;;;25.83;16.17;;;-1.00;99.90;0.30;94245.00;;;;7390862;19;20231;-74
2023/03/01 08:00:01;;;;;;;28.47;17.53;;;-1.00;99.90;0.30;94236.00;;;;7392093;19;20164;-73
2023/03/01 08:02:34;;;;;;;25.20;17.20;;;-1.10;99.90;0.50;94301.00;;;;7396230;19;20148;-73
2023/03/01 08:05:09;;;;;;;26.93;17.40;;;-1.10;99.90;0.40;94291.00;;;;7396624;19;20176;-74
2023/03/01 08:07:37;;;;;;;25.53;17.10;;;-1.00;99.90;1.10;94271.00;;;;7399496;19;20683;-74
2023/03/01 08:10:11;;;;;;;26.17;16.70;;;-1.00;99.90;1.60;94253.00;;;;7394325;19;20184;-75
2023/03/01 08:12:38;;;;;;;24.93;16.33;;;-0.70;99.90;1.60;94253.00;;;;7398552;19;20132;-75
2023/03/01 08:15:12;;;;;;;22.77;16.27;;;-0.60;99.90;1.70;94275.00;;;;7405865;19;20156;-74
2023/03/01 08:17:45;;;;;;;26.70;16.47;;;-0.50;99.90;1.70;94241.00;;;;7404484;19;20136;-75
2023/03/01 08:20:19;;;;;;;24.90;15.97;;;-0.40;99.90;1.40;94261.00;;;;7403006;19;20500;-73
2023/03/01 08:22:53;;;;;;;22.57;16.63;;;-0.20;99.90;1.60;94281.00;;;;7404302;19;20129;-75
2023/03/01 08:25:27;;;;;;;27.67;15.80;;;-0.10;99.90;1.80;94270.00;;;;7403859;19;20458;-74
2023/03/01 08:28:01;;;;;;;21.77;15.87;;;0.00;99.90;1.80;94239.00;;;;7400274;19;20152;-74
2023/03/01 08:30:36;;;;;;;22.50;15.90;;;0.20;99.90;1.60;94248.00;;;;7403347;19;20615;-75
2023/03/01 08:33:10;;;;;;;24.53;16.47;;;0.20;99.90;2.00;94251.00;;;;7395423;19;20156;-75
2023/03/01 08:35:44;;;;;;;22.53;15.83;;;0.40;99.90;2.30;94251.00;;;;7402054;19;20163;-77
2023/03/01 08:38:17;;;;;;;24.43;15.87;;;0.60;99.90;2.30;94277.00;;;;7397591;19;20140;-78
2023/03/01 08:40:51;;;;;;;27.13;16.07;;;0.90;99.90;2.30;94251.00;;;;7401062;19;20220;-79
2023/03/01 08:43:24;;;;;;;22.43;16.20;;;1.10;77.70;2.40;94208.00;;;;7402539;19;21026;-78
2023/03/01 08:45:52;;;;;;;22.70;15.00;;;1.20;60.90;2.60;94214.00;;;;7401501;19;20133;-77
2023/03/01 08:48:27;;;;;;;23.23;15.97;;;1.30;38.90;2.60;94228.00;;;;7402984;19;20145;-75
2023/03/01 08:51:24;;;;;;;22.63;15.53;;;1.20;31.60;2.80;94276.00;;;;7404037;19;20579;-79
2023/03/01 08:53:58;;;;;;;23.87;16.20;;;1.20;39.40;3.70;94265.00;;;;7403465;19;20225;-77
2023/03/01 08:56:25;;;;;;;23.40;15.67;;;1.40;55.00;4.00;94227.00;;;;7397444;19;20587;-76
2023/03/01 08:58:59;;;;;;;23.30;15.43;;;;;3.70;94255.00;;;;7403417;19;20129;-76
2023/03/01 09:01:33;;;;;;;22.97;15.93;;;1.60;1.00;4.20;94216.00;;;;7402266;19;20144;-77
2023/03/01 09:04:06;;;;;;;23.57;15.87;;;1.80;13.30;4.30;94255.00;;;;7403931;19;20592;-77
2023/03/01 09:06:34;;;;;;;22.27;14.73;;;2.00;1.00;4.40;94248.00;;;;7403349;19;20612;-78
2023/03/01 09:09:17;;;;;;;22.30;15.20;;;2.10;1.00;4.50;94263.00;;;;7401673;19;20204;-77
2023/03/01 09:11:45;;;;;;;22.63;16.40;;;2.20;1.00;4.50;94250.00;;;;7404328;19;20173;-78
2023/03/01 09:14:19;;;;;;;25.83;16.30;;;2.50;1.00;4.80;94252.00;;;;7402762;19;20469;-78
2023/03/01 09:16:47;;;;;;;24.03;16.23;;;2.60;1.00;4.40;94217.00;;;;7406462;19;20148;-80
2023/03/01 09:19:20;;;;;;;22.53;16.27;;;2.60;1.00;4.30;94244.00;;;;7403442;19;20160;-76
2023/03/01 09:21:55;;;;;;;23.83;16.00;;;2.70;1.00;4.50;94213.00;;;;7403410;19;20120;-76
2023/03/01 09:24:24;;;;;;;22.90;15.67;;;2.60;1.00;4.40;94238.00;;;;7404582;19;20164;-80
2023/03/01 09:26:57;;;;;;;20.40;15.67;;;2.60;1.00;4.70;94221.00;;;;7407960;19;20173;-80
2023/03/01 09:29:25;;;;;;;25.33;16.03;;;2.80;1.00;4.70;94225.00;;;;7406709;19;20125;-79
2023/03/01 09:32:00;;;;;;;22.80;15.93;;;3.00;1.00;5.30;94210.00;;;;7406837;19;20152;-81
2023/03/01 09:34:27;;;;;;;22.43;15.53;;;3.20;1.00;4.80;94230.00;;;;7403888;19;20636;-81
2023/03/01 09:37:02;;;;;;;24.80;15.47;;;3.20;1.00;5.30;94209.00;;;;7405363;19;20128;-77
2023/03/01 09:39:29;;;;;;;24.33;16.60;;;3.30;1.00;4.30;94215.00;;;;7402365;19;20125;-80
2023/03/01 09:42:04;;;;;;;24.13;16.17;;;3.10;1.00;5.50;94191.00;;;;7403475;19;20137;-80
2023/03/01 09:45:03;;;;;;;24.33;16.60;;;3.30;1.00;5.80;94222.00;;;;7392097;19;20164;-79
2023/03/01 09:47:36;;;;;;;20.93;15.97;;;3.70;1.00;5.80;94209.00;;;;7401695;19;20141;-76
2023/03/01 09:50:41;;;;;;;24.83;16.53;;;3.90;1.00;5.50;94188.00;;;;7402468;19;20129;-77
2023/03/01 09:53:31;;;;;;;27.97;16.73;;;3.80;1.00;5.50;94190.00;;;;7404475;19;20125;-78
2023/03/01 09:56:21;;;;;;;23.83;16.67;;;3.70;1.00;5.30;94220.00;;;;7398322;19;20164;-76
2023/03/01 09:59:13;;;;;;;22.47;17.17;;;3.90;1.00;5.30;94218.00;;;;7401803;19;20143;-76
2023/03/01 10:02:03;;;;;;;26.43;18.00;;;3.90;1.00;6.50;94180.00;;;;7395665;19;20196;-79
2023/03/01 10:05:19;;;;;;;24.73;16.53;;;4.00;1.00;6.90;94189.00;;;;7401932;19;20136;-79
2023/03/01 10:08:06;;;;;;;22.67;15.17;;;4.40;1.00;6.80;94214.00;;;;7401618;19;20484;-78
2023/03/01 10:10:47;;;;;;;21.43;15.07;;;4.70;1.00;7.00;94220.00;;;;7401410;19;20136;-79
2023/03/01 10:13:23;;;;;;;22.30;15.90;;;4.80;1.00;6.20;94216.00;;;;7402363;19;20747;-78
2023/03/01 10:16:11;;;;;;;23.13;16.37;;;4.80;1.00;6.10;94151.00;;;;7402086;19;20146;-78
2023/03/01 10:18:41;;;;;;;20.97;15.93;;;4.80;99.90;5.80;94169.00;;;;7402987;19;20129;-79
2023/03/01 10:21:19;;;;;;;22.10;15.80;;;4.80;1.00;6.40;94214.00;;;;7403318;19;20129;-80
2023/03/01 10:24:08;;;;;;;22.00;15.50;;;4.90;1.00;6.00;94208.00;;;;7401389;19;20488;-79
2023/03/01 10:26:58;;;;;;;22.00;16.47;;;4.70;1.00;7.00;94199.00;;;;7401142;19;20148;-79
2023/03/01 10:29:48;;;;;;;23.33;16.17;;;4.90;1.00;7.40;94172.00;;;;7399424;19;20143;-78
2023/03/01 10:32:26;;;;;;;21.60;15.70;;;5.30;1.00;6.70;94203.00;;;;7406614;19;20152;-78
2023/03/01 10:35:24;;;;;;;24.63;16.60;;;5.50;1.00;6.80;94200.00;;;;7410242;19;20128;-77
2023/03/01 10:38:09;;;;;;;21.50;16.47;;;5.50;1.00;7.10;94173.00;;;;7405216;19;20733;-78
2023/03/01 10:40:58;;;;;;;23.20;15.93;;;5.50;1.00;7.90;94211.00;;;;7403633;19;20133;-78
2023/03/01 10:43:51;;;;;;;21.53;15.73;;;5.50;1.00;7.90;94217.00;;;;7400166;19;20152;-78
2023/03/01 10:46:31;;;;;;;21.88;15.85;;;5.90;1.00;7.20;94207.00;;;;7400173;19;20144;-78
2023/03/01 10:49:25;;;;;;;20.90;15.35;;;5.90;1.00;7.70;94209.00;;;;7398247;19;20183;-75
2023/03/01 10:52:18;;;;;;;21.00;16.52;;;5.90;1.00;7.80;94173.00;;;;7402851;19;20129;-75
2023/03/01 10:55:13;;;;;;;17.95;14.70;;;6.10;1.00;7.70;94212.00;;;;7393632;19;20148;-76
2023/03/01 10:57:46;;;;;;;19.53;15.30;;;6.40;1.00;8.10;94208.00;;;;7398713;19;20480;-75
2023/03/01 11:00:28;;;;;;;19.70;15.67;;;6.30;1.00;7.80;94196.00;;;;7400465;19;20136;-75
2023/03/01 11:03:11;;;;;;;23.27;17.42;;;6.30;1.00;8.80;94195.00;;;;7400420;19;20163;-76
2023/03/01 11:06:12;;;;;;;21.95;17.08;;;6.90;1.00;9.00;94191.00;;;;7401094;19;20568;-77
2023/03/01 11:09:23;;;;;;;20.45;15.82;;;7.30;1.00;7.80;94186.00;;;;7404187;19;20135;-77
2023/03/01 11:12:00;;;;;;;22.38;15.93;;;7.00;1.00;8.40;94192.00;;;;7405145;19;20152;-76
2023/03/01 11:14:47;;;;;;;22.50;16.05;;;6.80;1.00;9.20;94186.00;;;;7407586;19;20485;-76
2023/03/01 11:17:32;;;;;;;21.70;16.42;;;7.00;1.00;9.00;94033.00;;;;7405744;19;20140;-77
2023/03/01 11:20:37;;;;;;;23.27;15.57;;;7.20;1.00;9.50;94166.00;;;;7408795;19;20184;-76
2023/03/01 11:23:17;;;;;;;21.88;15.43;;;7.20;1.00;9.20;94119.00;;;;7410506;19;20172;-78
2023/03/01 11:26:13;;;;;;;21.15;15.75;;;7.40;1.00;8.00;94153.00;;;;7410450;19;20137;-76
2023/03/01 11:29:28;;;;;;;22.02;15.90;;;7.20;1.00;9.40;94077.00;;;;7411560;19;20495;-77